sensor_id;sensor_type;location;lat;lon;timestamp;pressure;altitude;pressure_sealevel;temperature;humidity
69980;BME280;57318;56.232;43.944;2022-08-01T00:01:06;99358.25;;;16.60;66.45
69980;BME280;57318;56.232;43.944;2022-08-01T00:03:32;99353.88;;;16.59;66.63
69980;BME280;57318;56.232;43.944;2022-08-01T00:05:58;99352.72;;;16.54;67.08
69980;BME280;57318;56.232;43.944;2022-08-01T00:08:23;99354.69;;;16.52;67.16
69980;BME280;57318;56.232;43.944;2022-08-01T00:10:49;99356.38;;;16.53;67.23
69980;BME280;57318;56.232;43.944;2022-08-01T00:13:15;99350.34;;;16.51;67.45
69980;BME280;57318;56.232;43.944;2022-08-01T00:15:40;99355.03;;;16.49;67.48
69980;BME280;57318;56.232;43.944;2022-08-01T00:18:06;99357.03;;;16.47;67.29
69980;BME280;57318;56.232;43.944;2022-08-01T00:20:31;99349.31;;;16.44;67.54
69980;BME280;57318;56.232;43.944;2022-08-01T00:22:57;99351.16;;;16.43;67.44
69980;BME280;57318;56.232;43.944;2022-08-01T00:25:23;99356.69;;;16.41;67.35
69980;BME280;57318;56.232;43.944;2022-08-01T00:27:48;99349.81;;;16.39;67.65
69980;BME280;57318;56.232;43.944;2022-08-01T00:30:14;99351.81;;;16.37;67.58
69980;BME280;57318;56.232;43.944;2022-08-01T00:32:42;99351.97;;;16.35;67.47
69980;BME280;57318;56.232;43.944;2022-08-01T00:35:08;99345.44;;;16.38;67.07
69980;BME280;57318;56.232;43.944;2022-08-01T00:37:34;99342.75;;;16.38;66.57
69980;BME280;57318;56.232;43.944;2022-08-01T00:40:00;99344.44;;;16.39;66.50
69980;BME280;57318;56.232;43.944;2022-08-01T00:42:25;99350.63;;;16.39;66.15
69980;BME280;57318;56.232;43.944;2022-08-01T00:44:51;99348.81;;;16.40;66.05
69980;BME280;57318;56.232;43.944;2022-08-01T00:47:16;99351.16;;;16.43;65.77
69980;BME280;57318;56.232;43.944;2022-08-01T00:49:42;99350.31;;;16.42;65.70
69980;BME280;57318;56.232;43.944;2022-08-01T00:52:09;99354.19;;;16.40;65.79
69980;BME280;57318;56.232;43.944;2022-08-01T00:54:35;99353.16;;;16.41;65.79
69980;BME280;57318;56.232;43.944;2022-08-01T00:57:02;99353.16;;;16.41;65.78
69980;BME280;57318;56.232;43.944;2022-08-01T00:59:28;99352.81;;;16.36;65.96
69980;BME280;57318;56.232;43.944;2022-08-01T01:01:54;99354.66;;;16.35;66.11
69980;BME280;57318;56.232;43.944;2022-08-01T01:04:20;99352.47;;;16.31;66.54
69980;BME280;57318;56.232;43.944;2022-08-01T01:09:34;99353.44;;;16.21;68.32
69980;BME280;57318;56.232;43.944;2022-08-01T01:15:10;99348.38;;;16.10;68.15
69980;BME280;57318;56.232;43.944;2022-08-01T01:17:45;99353.03;;;16.08;67.75
69980;BME280;57318;56.232;43.944;2022-08-01T01:20:13;99354.88;;;16.08;67.57
69980;BME280;57318;56.232;43.944;2022-08-01T01:30:53;99365.13;;;16.12;68.14
69980;BME280;57318;56.232;43.944;2022-08-01T01:33:21;99363.25;;;16.13;68.66
69980;BME280;57318;56.232;43.944;2022-08-01T01:35:52;99371.84;;;16.16;68.46
69980;BME280;57318;56.232;43.944;2022-08-01T01:38:24;99368.31;;;16.16;68.88
69980;BME280;57318;56.232;43.944;2022-08-01T01:40:52;99369.00;;;16.18;68.82
69980;BME280;57318;56.232;43.944;2022-08-01T01:43:19;99369.84;;;16.18;68.82
69980;BME280;57318;56.232;43.944;2022-08-01T01:45:47;99364.47;;;16.18;69.01
69980;BME280;57318;56.232;43.944;2022-08-01T01:48:17;99375.19;;;16.18;69.15
69980;BME280;57318;56.232;43.944;2022-08-01T01:50:45;99367.31;;;16.17;69.46
69980;BME280;57318;56.232;43.944;2022-08-01T01:53:13;99374.22;;;16.19;69.47
69980;BME280;57318;56.232;43.944;2022-08-01T01:55:41;99370.50;;;16.20;69.34
69980;BME280;57318;56.232;43.944;2022-08-01T01:58:09;99369.19;;;16.24;69.15
69980;BME280;57318;56.232;43.944;2022-08-01T02:00:37;99368.56;;;16.31;68.73
69980;BME280;57318;56.232;43.944;2022-08-01T02:03:05;99370.09;;;16.41;68.02
69980;BME280;57318;56.232;43.944;2022-08-01T02:05:33;99364.59;;;16.51;67.44
69980;BME280;57318;56.232;43.944;2022-08-01T02:08:02;99366.97;;;16.63;66.85
69980;BME280;57318;56.232;43.944;2022-08-01T02:10:30;99362.47;;;16.71;66.13
69980;BME280;57318;56.232;43.944;2022-08-01T02:12:57;99365.84;;;16.82;65.32
69980;BME280;57318;56.232;43.944;2022-08-01T02:15:27;99371.94;;;16.92;64.44
69980;BME280;57318;56.232;43.944;2022-08-01T02:17:54;99376.47;;;17.00;64.21
69980;BME280;57318;56.232;43.944;2022-08-01T02:20:22;99377.13;;;17.10;63.98
69980;BME280;57318;56.232;43.944;2022-08-01T02:23:01;99385.88;;;17.20;63.79
69980;BME280;57318;56.232;43.944;2022-08-01T02:25:39;99381.69;;;17.26;63.68
69980;BME280;57318;56.232;43.944;2022-08-01T02:28:10;99382.03;;;17.31;63.62
69980;BME280;57318;56.232;43.944;2022-08-01T02:30:41;99383.53;;;17.34;63.71
69980;BME280;57318;56.232;43.944;2022-08-01T02:33:12;99389.75;;;17.34;63.80
69980;BME280;57318;56.232;43.944;2022-08-01T02:35:41;99384.53;;;17.41;63.59
69980;BME280;57318;56.232;43.944;2022-08-01T02:38:10;99384.22;;;17.44;63.45
69980;BME280;57318;56.232;43.944;2022-08-01T02:40:40;99382.34;;;17.44;63.19
69980;BME280;57318;56.232;43.944;2022-08-01T02:43:09;99388.38;;;17.46;63.09
69980;BME280;57318;56.232;43.944;2022-08-01T02:45:37;99391.59;;;17.50;62.81
69980;BME280;57318;56.232;43.944;2022-08-01T02:48:12;99383.00;;;17.46;62.57
69980;BME280;57318;56.232;43.944;2022-08-01T02:50:39;99386.06;;;17.52;62.33
69980;BME280;57318;56.232;43.944;2022-08-01T02:53:09;99383.53;;;17.50;62.53
69980;BME280;57318;56.232;43.944;2022-08-01T02:55:40;99377.13;;;17.51;62.57
69980;BME280;57318;56.232;43.944;2022-08-01T02:58:09;99389.06;;;17.48;62.91
69980;BME280;57318;56.232;43.944;2022-08-01T03:00:37;99387.56;;;17.46;63.53
69980;BME280;57318;56.232;43.944;2022-08-01T03:03:06;99389.25;;;17.47;63.71
69980;BME280;57318;56.232;43.944;2022-08-01T03:05:35;99394.44;;;17.48;63.58
69980;BME280;57318;56.232;43.944;2022-08-01T03:08:02;99395.94;;;17.51;63.58
69980;BME280;57318;56.232;43.944;2022-08-01T03:10:30;99395.94;;;17.51;63.62
69980;BME280;57318;56.232;43.944;2022-08-01T03:12:59;99390.91;;;17.56;63.62
69980;BME280;57318;56.232;43.944;2022-08-01T03:15:26;99392.25;;;17.60;63.34
69980;BME280;57318;56.232;43.944;2022-08-01T03:17:55;99391.06;;;17.63;63.26
69980;BME280;57318;56.232;43.944;2022-08-01T03:20:22;99399.28;;;17.70;63.05
69980;BME280;57318;56.232;43.944;2022-08-01T03:22:51;99395.91;;;17.76;62.74
69980;BME280;57318;56.232;43.944;2022-08-01T03:25:18;99394.91;;;17.85;62.37
69980;BME280;57318;56.232;43.944;2022-08-01T03:27:54;99394.25;;;17.91;61.88
69980;BME280;57318;56.232;43.944;2022-08-01T03:30:22;99396.91;;;17.99;61.72
69980;BME280;57318;56.232;43.944;2022-08-01T03:32:49;99400.44;;;18.08;61.18
69980;BME280;57318;56.232;43.944;2022-08-01T03:35:14;99404.94;;;18.16;60.80
69980;BME280;57318;56.232;43.944;2022-08-01T03:37:46;99404.91;;;18.24;60.59
69980;BME280;57318;56.232;43.944;2022-08-01T03:40:22;99399.50;;;18.32;59.45
69980;BME280;57318;56.232;43.944;2022-08-01T03:42:52;99408.56;;;18.39;59.20
69980;BME280;57318;56.232;43.944;2022-08-01T03:45:21;99406.00;;;18.46;58.82
69980;BME280;57318;56.232;43.944;2022-08-01T03:47:49;99403.44;;;18.53;58.55
69980;BME280;57318;56.232;43.944;2022-08-01T03:50:17;99401.06;;;18.58;57.79
69980;BME280;57318;56.232;43.944;2022-08-01T03:52:46;99404.44;;;18.60;57.42
69980;BME280;57318;56.232;43.944;2022-08-01T03:55:15;99415.69;;;18.64;57.35
69980;BME280;57318;56.232;43.944;2022-08-01T03:57:46;99415.63;;;18.72;56.71
69980;BME280;57318;56.232;43.944;2022-08-01T04:00:13;99415.97;;;18.77;56.29
69980;BME280;57318;56.232;43.944;2022-08-01T04:02:45;99417.09;;;18.83;56.43
69980;BME280;57318;56.232;43.944;2022-08-01T04:05:11;99419.94;;;18.89;56.70
69980;BME280;57318;56.232;43.944;2022-08-01T04:07:37;99427.31;;;18.96;57.31
69980;BME280;57318;56.232;43.944;2022-08-01T04:10:05;99425.13;;;18.99;57.26
69980;BME280;57318;56.232;43.944;2022-08-01T04:12:31;99427.56;;;19.09;57.44
69980;BME280;57318;56.232;43.944;2022-08-01T04:14:58;99430.03;;;19.19;57.15
69980;BME280;57318;56.232;43.944;2022-08-01T04:17:24;99427.28;;;19.27;56.36
69980;BME280;57318;56.232;43.944;2022-08-01T04:19:50;99432.13;;;19.32;55.46
69980;BME280;57318;56.232;43.944;2022-08-01T04:22:15;99431.22;;;19.39;54.12
69980;BME280;57318;56.232;43.944;2022-08-01T04:24:44;99435.53;;;19.48;53.34
69980;BME280;57318;56.232;43.944;2022-08-01T04:27:18;99433.13;;;19.54;51.48
69980;BME280;57318;56.232;43.944;2022-08-01T04:29:46;99427.00;;;19.60;51.75
69980;BME280;57318;56.232;43.944;2022-08-01T04:32:14;99432.13;;;19.70;51.56
69980;BME280;57318;56.232;43.944;2022-08-01T04:34:41;99426.53;;;19.79;50.74
69980;BME280;57318;56.232;43.944;2022-08-01T04:37:12;99435.75;;;19.85;50.60
69980;BME280;57318;56.232;43.944;2022-08-01T04:39:42;99431.41;;;19.99;50.25
69980;BME280;57318;56.232;43.944;2022-08-01T04:42:08;99434.19;;;20.06;49.92
69980;BME280;57318;56.232;43.944;2022-08-01T04:44:34;99432.25;;;20.14;50.03
69980;BME280;57318;56.232;43.944;2022-08-01T04:47:05;99429.63;;;20.21;49.30
69980;BME280;57318;56.232;43.944;2022-08-01T04:49:34;99428.53;;;20.30;48.32
69980;BME280;57318;56.232;43.944;2022-08-01T04:52:00;99427.69;;;20.45;47.53
69980;BME280;57318;56.232;43.944;2022-08-01T04:54:27;99432.59;;;20.56;47.38
69980;BME280;57318;56.232;43.944;2022-08-01T04:56:54;99427.31;;;20.63;47.85
69980;BME280;57318;56.232;43.944;2022-08-01T04:59:26;99439.03;;;20.70;48.28
69980;BME280;57318;56.232;43.944;2022-08-01T05:02:08;99425.47;;;20.78;49.25
69980;BME280;57318;56.232;43.944;2022-08-01T05:04:34;99434.63;;;20.84;49.71
69980;BME280;57318;56.232;43.944;2022-08-01T05:07:01;99430.56;;;20.88;49.71
69980;BME280;57318;56.232;43.944;2022-08-01T05:09:27;99439.28;;;20.90;49.83
69980;BME280;57318;56.232;43.944;2022-08-01T05:11:53;99436.84;;;20.95;49.48
69980;BME280;57318;56.232;43.944;2022-08-01T05:14:18;99437.69;;;20.96;48.43
69980;BME280;57318;56.232;43.944;2022-08-01T05:16:44;99432.69;;;20.93;48.17
69980;BME280;57318;56.232;43.944;2022-08-01T05:19:11;99433.69;;;20.91;47.71
69980;BME280;57318;56.232;43.944;2022-08-01T05:21:37;99436.94;;;21.02;47.70
69980;BME280;57318;56.232;43.944;2022-08-01T05:26:28;99435.38;;;21.14;47.93
69980;BME280;57318;56.232;43.944;2022-08-01T05:28:54;99433.97;;;21.18;47.23
69980;BME280;57318;56.232;43.944;2022-08-01T05:31:20;99429.50;;;21.25;47.20
69980;BME280;57318;56.232;43.944;2022-08-01T05:33:45;99424.34;;;21.31;46.36
69980;BME280;57318;56.232;43.944;2022-08-01T05:36:11;99426.28;;;21.37;45.94
69980;BME280;57318;56.232;43.944;2022-08-01T05:38:37;99414.03;;;21.41;45.29
69980;BME280;57318;56.232;43.944;2022-08-01T05:41:02;99419.91;;;21.44;45.65
69980;BME280;57318;56.232;43.944;2022-08-01T05:43:28;99417.09;;;21.53;45.71
69980;BME280;57318;56.232;43.944;2022-08-01T05:45:53;99418.56;;;21.55;45.57
69980;BME280;57318;56.232;43.944;2022-08-01T05:48:19;99426.09;;;21.60;44.67
69980;BME280;57318;56.232;43.944;2022-08-01T05:50:45;99420.03;;;21.58;45.04
69980;BME280;57318;56.232;43.944;2022-08-01T05:53:13;99416.50;;;21.57;44.76
69980;BME280;57318;56.232;43.944;2022-08-01T05:55:39;99425.91;;;21.61;45.24
69980;BME280;57318;56.232;43.944;2022-08-01T05:58:04;99420.75;;;21.67;44.52
69980;BME280;57318;56.232;43.944;2022-08-01T06:00:36;99424.47;;;21.66;44.62
69980;BME280;57318;56.232;43.944;2022-08-01T06:03:02;99423.84;;;21.63;44.44
69980;BME280;57318;56.232;43.944;2022-08-01T06:05:27;99420.75;;;21.67;44.08
69980;BME280;57318;56.232;43.944;2022-08-01T06:07:53;99412.47;;;21.75;44.40
69980;BME280;57318;56.232;43.944;2022-08-01T06:10:19;99421.88;;;21.79;44.29
69980;BME280;57318;56.232;43.944;2022-08-01T06:12:45;99416.13;;;21.89;43.64
69980;BME280;57318;56.232;43.944;2022-08-01T06:15:11;99421.97;;;21.92;42.94
69980;BME280;57318;56.232;43.944;2022-08-01T06:17:37;99418.88;;;21.95;42.61
69980;BME280;57318;56.232;43.944;2022-08-01T06:20:05;99419.56;;;22.04;42.29
69980;BME280;57318;56.232;43.944;2022-08-01T06:22:31;99418.19;;;22.15;42.19
69980;BME280;57318;56.232;43.944;2022-08-01T06:24:57;99420.25;;;22.20;41.73
69980;BME280;57318;56.232;43.944;2022-08-01T06:27:23;99415.13;;;22.25;42.05
69980;BME280;57318;56.232;43.944;2022-08-01T06:29:50;99415.38;;;22.30;41.52
69980;BME280;57318;56.232;43.944;2022-08-01T06:32:21;99419.38;;;22.41;41.38
69980;BME280;57318;56.232;43.944;2022-08-01T06:34:50;99424.44;;;22.50;40.91
69980;BME280;57318;56.232;43.944;2022-08-01T06:37:15;99426.53;;;22.55;40.89
69980;BME280;57318;56.232;43.944;2022-08-01T06:39:41;99427.94;;;22.99;39.96
69980;BME280;57318;56.232;43.944;2022-08-01T06:42:07;99432.00;;;24.30;37.47
69980;BME280;57318;56.232;43.944;2022-08-01T06:44:32;99425.66;;;25.98;34.25
69980;BME280;57318;56.232;43.944;2022-08-01T06:46:58;99437.81;;;27.90;31.07
69980;BME280;57318;56.232;43.944;2022-08-01T06:49:24;99440.34;;;29.83;27.92
69980;BME280;57318;56.232;43.944;2022-08-01T06:51:50;99440.44;;;31.38;25.46
69980;BME280;57318;56.232;43.944;2022-08-01T06:54:15;99452.78;;;33.06;23.65
69980;BME280;57318;56.232;43.944;2022-08-01T06:56:42;99455.22;;;34.78;21.14
69980;BME280;57318;56.232;43.944;2022-08-01T06:59:08;99461.84;;;36.01;19.95
69980;BME280;57318;56.232;43.944;2022-08-01T07:01:34;99458.47;;;37.44;18.30
69980;BME280;57318;56.232;43.944;2022-08-01T07:03:59;99461.66;;;39.00;16.94
69980;BME280;57318;56.232;43.944;2022-08-01T07:06:25;99462.06;;;40.43;15.71
69980;BME280;57318;56.232;43.944;2022-08-01T07:08:54;99466.69;;;41.58;14.33
69980;BME280;57318;56.232;43.944;2022-08-01T07:11:22;99459.72;;;42.08;13.63
69980;BME280;57318;56.232;43.944;2022-08-01T07:13:48;99455.38;;;42.66;13.61
69980;BME280;57318;56.232;43.944;2022-08-01T07:16:14;99452.75;;;43.88;12.68
69980;BME280;57318;56.232;43.944;2022-08-01T07:18:40;99456.00;;;44.36;12.33
69980;BME280;57318;56.232;43.944;2022-08-01T07:21:06;99450.16;;;44.28;12.01
69980;BME280;57318;56.232;43.944;2022-08-01T07:23:32;99460.34;;;45.23;11.48
69980;BME280;57318;56.232;43.944;2022-08-01T07:25:57;99453.25;;;45.54;11.13
69980;BME280;57318;56.232;43.944;2022-08-01T07:28:24;99456.78;;;46.11;10.78
69980;BME280;57318;56.232;43.944;2022-08-01T07:30:50;99448.25;;;46.07;10.78
69980;BME280;57318;56.232;43.944;2022-08-01T07:33:15;99457.25;;;46.45;10.39
69980;BME280;57318;56.232;43.944;2022-08-01T07:35:42;99454.13;;;46.82;9.96
69980;BME280;57318;56.232;43.944;2022-08-01T07:38:07;99448.09;;;46.32;10.24
69980;BME280;57318;56.232;43.944;2022-08-01T07:40:33;99458.06;;;46.29;10.15
69980;BME280;57318;56.232;43.944;2022-08-01T07:42:59;99454.38;;;46.93;9.68
69980;BME280;57318;56.232;43.944;2022-08-01T07:45:25;99447.88;;;47.08;9.58
69980;BME280;57318;56.232;43.944;2022-08-01T07:47:52;99452.28;;;46.54;10.31
69980;BME280;57318;56.232;43.944;2022-08-01T07:50:18;99448.03;;;46.28;10.28
69980;BME280;57318;56.232;43.944;2022-08-01T07:52:44;99444.94;;;46.34;10.18
69980;BME280;57318;56.232;43.944;2022-08-01T07:55:11;99448.00;;;46.60;9.69
69980;BME280;57318;56.232;43.944;2022-08-01T07:57:37;99444.91;;;46.66;9.57
69980;BME280;57318;56.232;43.944;2022-08-01T08:00:04;99440.66;;;46.40;9.81
69980;BME280;57318;56.232;43.944;2022-08-01T08:02:31;99441.56;;;46.95;9.44
69980;BME280;57318;56.232;43.944;2022-08-01T08:04:57;99441.19;;;47.32;9.12
69980;BME280;57318;56.232;43.944;2022-08-01T08:07:23;99440.41;;;47.55;8.70
69980;BME280;57318;56.232;43.944;2022-08-01T08:09:49;99437.69;;;47.39;8.99
69980;BME280;57318;56.232;43.944;2022-08-01T08:12:14;99434.84;;;47.20;8.96
69980;BME280;57318;56.232;43.944;2022-08-01T08:14:40;99430.34;;;47.34;8.79
69980;BME280;57318;56.232;43.944;2022-08-01T08:17:06;99439.56;;;47.74;8.78
69980;BME280;57318;56.232;43.944;2022-08-01T08:19:32;99428.34;;;47.78;8.86
69980;BME280;57318;56.232;43.944;2022-08-01T08:22:01;99430.69;;;47.95;8.61
69980;BME280;57318;56.232;43.944;2022-08-01T08:24:27;99424.22;;;47.71;9.01
69980;BME280;57318;56.232;43.944;2022-08-01T08:26:57;99429.13;;;47.98;8.85
69980;BME280;57318;56.232;43.944;2022-08-01T08:29:24;99428.25;;;47.94;8.83
69980;BME280;57318;56.232;43.944;2022-08-01T08:31:55;99429.94;;;49.02;8.64
69980;BME280;57318;56.232;43.944;2022-08-01T08:34:22;99434.25;;;49.56;8.43
69980;BME280;57318;56.232;43.944;2022-08-01T08:36:48;99433.31;;;49.48;7.82
69980;BME280;57318;56.232;43.944;2022-08-01T08:39:14;99433.44;;;49.97;7.88
69980;BME280;57318;56.232;43.944;2022-08-01T08:41:40;99432.38;;;50.16;7.67
69980;BME280;57318;56.232;43.944;2022-08-01T08:44:08;99425.78;;;49.97;8.17
69980;BME280;57318;56.232;43.944;2022-08-01T08:46:43;99427.66;;;49.82;7.52
69980;BME280;57318;56.232;43.944;2022-08-01T08:49:10;99437.09;;;49.60;7.87
69980;BME280;57318;56.232;43.944;2022-08-01T08:51:39;99423.66;;;48.32;8.45
69980;BME280;57318;56.232;43.944;2022-08-01T08:54:07;99411.91;;;48.26;8.73
69980;BME280;57318;56.232;43.944;2022-08-01T08:56:37;99429.31;;;48.58;9.06
69980;BME280;57318;56.232;43.944;2022-08-01T08:59:03;99421.53;;;48.25;8.88
69980;BME280;57318;56.232;43.944;2022-08-01T09:01:31;99423.31;;;48.87;8.33
69980;BME280;57318;56.232;43.944;2022-08-01T09:03:59;99429.63;;;48.80;7.88
69980;BME280;57318;56.232;43.944;2022-08-01T09:06:25;99421.97;;;47.58;8.78
69980;BME280;57318;56.232;43.944;2022-08-01T09:08:50;99416.81;;;47.83;8.63
69980;BME280;57318;56.232;43.944;2022-08-01T09:11:16;99422.88;;;45.72;9.97
69980;BME280;57318;56.232;43.944;2022-08-01T09:14:10;99413.06;;;44.68;10.18
69980;BME280;57318;56.232;43.944;2022-08-01T09:16:41;99419.47;;;45.22;10.08
69980;BME280;57318;56.232;43.944;2022-08-01T09:19:16;99413.97;;;43.65;11.29
69980;BME280;57318;56.232;43.944;2022-08-01T09:21:56;99400.19;;;41.86;11.77
69980;BME280;57318;56.232;43.944;2022-08-01T09:24:24;99397.09;;;39.85;14.00
69980;BME280;57318;56.232;43.944;2022-08-01T09:26:49;99398.13;;;38.01;16.07
69980;BME280;57318;56.232;43.944;2022-08-01T09:29:21;99395.84;;;36.18;17.69
69980;BME280;57318;56.232;43.944;2022-08-01T09:31:47;99389.09;;;35.02;18.61
69980;BME280;57318;56.232;43.944;2022-08-01T09:34:14;99395.59;;;33.80;19.88
69980;BME280;57318;56.232;43.944;2022-08-01T09:39:18;99392.97;;;32.18;21.19
69980;BME280;57318;56.232;43.944;2022-08-01T09:41:46;99390.03;;;31.87;21.22
69980;BME280;57318;56.232;43.944;2022-08-01T09:44:12;99398.13;;;31.66;21.38
69980;BME280;57318;56.232;43.944;2022-08-01T09:46:54;99396.22;;;32.63;21.00
69980;BME280;57318;56.232;43.944;2022-08-01T09:49:28;99399.66;;;34.90;18.60
69980;BME280;57318;56.232;43.944;2022-08-01T09:51:55;99413.47;;;36.27;17.17
69980;BME280;57318;56.232;43.944;2022-08-01T09:54:32;99407.72;;;37.62;15.75
69980;BME280;57318;56.232;43.944;2022-08-01T09:57:15;99401.56;;;38.54;15.00
69980;BME280;57318;56.232;43.944;2022-08-01T09:59:52;99415.19;;;41.20;13.01
69980;BME280;57318;56.232;43.944;2022-08-01T10:02:36;99424.59;;;42.96;11.07
69980;BME280;57318;56.232;43.944;2022-08-01T10:05:04;99415.69;;;43.91;10.50
69980;BME280;57318;56.232;43.944;2022-08-01T10:07:30;99419.25;;;45.15;9.77
69980;BME280;57318;56.232;43.944;2022-08-01T10:10:16;99412.88;;;45.58;9.23
69980;BME280;57318;56.232;43.944;2022-08-01T10:12:42;99419.88;;;45.65;9.06
69980;BME280;57318;56.232;43.944;2022-08-01T10:15:10;99407.53;;;45.53;9.18
69980;BME280;57318;56.232;43.944;2022-08-01T10:17:38;99407.94;;;46.63;8.94
69980;BME280;57318;56.232;43.944;2022-08-01T10:20:05;99415.63;;;45.71;9.72
69980;BME280;57318;56.232;43.944;2022-08-01T10:22:32;99406.97;;;46.24;10.34
69980;BME280;57318;56.232;43.944;2022-08-01T10:25:03;99408.41;;;47.24;9.43
69980;BME280;57318;56.232;43.944;2022-08-01T10:27:29;99411.03;;;47.33;8.91
69980;BME280;57318;56.232;43.944;2022-08-01T10:29:59;99408.44;;;47.05;9.25
69980;BME280;57318;56.232;43.944;2022-08-01T10:32:34;99405.84;;;46.13;9.54
69980;BME280;57318;56.232;43.944;2022-08-01T10:35:02;99414.34;;;46.64;9.05
69980;BME280;57318;56.232;43.944;2022-08-01T10:37:29;99417.59;;;47.02;8.83
69980;BME280;57318;56.232;43.944;2022-08-01T10:39:55;99412.34;;;47.00;8.36
69980;BME280;57318;56.232;43.944;2022-08-01T10:42:21;99417.00;;;46.41;8.96
69980;BME280;57318;56.232;43.944;2022-08-01T10:44:48;99410.75;;;47.61;8.17
69980;BME280;57318;56.232;43.944;2022-08-01T10:47:17;99409.28;;;48.14;8.32
69980;BME280;57318;56.232;43.944;2022-08-01T10:49:48;99411.69;;;48.38;7.77
69980;BME280;57318;56.232;43.944;2022-08-01T10:52:19;99411.81;;;48.19;8.11
69980;BME280;57318;56.232;43.944;2022-08-01T10:54:45;99410.22;;;47.75;8.09
69980;BME280;57318;56.232;43.944;2022-08-01T10:57:11;99401.03;;;48.51;7.71
69980;BME280;57318;56.232;43.944;2022-08-01T10:59:51;99409.09;;;48.53;8.09
69980;BME280;57318;56.232;43.944;2022-08-01T11:02:31;99407.59;;;48.36;8.14
69980;BME280;57318;56.232;43.944;2022-08-01T11:05:04;99397.38;;;48.47;8.87
69980;BME280;57318;56.232;43.944;2022-08-01T11:07:55;99395.66;;;47.69;9.19
69980;BME280;57318;56.232;43.944;2022-08-01T11:12:58;99379.66;;;42.29;12.17
69980;BME280;57318;56.232;43.944;2022-08-01T11:15:26;99376.31;;;39.82;14.17
69980;BME280;57318;56.232;43.944;2022-08-01T11:17:56;99367.25;;;37.61;15.82
69980;BME280;57318;56.232;43.944;2022-08-01T11:26:11;99363.53;;;35.26;18.63
69980;BME280;57318;56.232;43.944;2022-08-01T11:30:52;99364.19;;;33.25;20.79
69980;BME280;57318;56.232;43.944;2022-08-01T11:38:49;99366.38;;;38.77;15.52
69980;BME280;57318;56.232;43.944;2022-08-01T11:49:32;99369.53;;;44.46;10.51
69980;BME280;57318;56.232;43.944;2022-08-01T11:54:38;99375.31;;;45.19;9.90
69980;BME280;57318;56.232;43.944;2022-08-01T11:57:17;99369.78;;;45.22;10.13
69980;BME280;57318;56.232;43.944;2022-08-01T11:59:52;99363.84;;;44.83;10.16
69980;BME280;57318;56.232;43.944;2022-08-01T12:02:31;99366.91;;;45.35;9.88
69980;BME280;57318;56.232;43.944;2022-08-01T12:05:02;99361.75;;;43.02;11.20
69980;BME280;57318;56.232;43.944;2022-08-01T12:07:31;99360.91;;;40.74;12.58
69980;BME280;57318;56.232;43.944;2022-08-01T12:12:25;99340.34;;;36.34;15.89
69980;BME280;57318;56.232;43.944;2022-08-01T12:14:59;99333.94;;;34.92;17.64
69980;BME280;57318;56.232;43.944;2022-08-01T12:17:40;99327.38;;;34.22;18.76
69980;BME280;57318;56.232;43.944;2022-08-01T12:20:09;99330.75;;;34.69;18.71
69980;BME280;57318;56.232;43.944;2022-08-01T12:22:36;99336.69;;;36.38;17.32
69980;BME280;57318;56.232;43.944;2022-08-01T12:27:32;99345.44;;;37.41;16.58
69980;BME280;57318;56.232;43.944;2022-08-01T12:29:59;99344.81;;;36.92;17.27
69980;BME280;57318;56.232;43.944;2022-08-01T12:32:29;99344.41;;;35.93;17.76
69980;BME280;57318;56.232;43.944;2022-08-01T12:35:01;99345.31;;;35.19;18.63
69980;BME280;57318;56.232;43.944;2022-08-01T12:37:29;99349.63;;;36.19;18.05
69980;BME280;57318;56.232;43.944;2022-08-01T12:39:55;99349.47;;;35.51;18.43
69980;BME280;57318;56.232;43.944;2022-08-01T12:42:21;99344.53;;;36.93;17.42
69980;BME280;57318;56.232;43.944;2022-08-01T12:44:50;99346.31;;;38.16;16.83
69980;BME280;57318;56.232;43.944;2022-08-01T12:47:18;99342.47;;;38.90;15.98
69980;BME280;57318;56.232;43.944;2022-08-01T12:49:44;99340.41;;;37.43;17.13
69980;BME280;57318;56.232;43.944;2022-08-01T12:52:11;99346.63;;;35.62;18.93
69980;BME280;57318;56.232;43.944;2022-08-01T12:55:05;99336.38;;;34.48;20.29
69980;BME280;57318;56.232;43.944;2022-08-01T12:57:32;99341.28;;;33.04;21.63
69980;BME280;57318;56.232;43.944;2022-08-01T13:02:34;99334.88;;;30.69;23.96
69980;BME280;57318;56.232;43.944;2022-08-01T13:05:01;99324.44;;;30.00;24.85
69980;BME280;57318;56.232;43.944;2022-08-01T13:07:37;99326.53;;;29.37;25.87
69980;BME280;57318;56.232;43.944;2022-08-01T13:10:03;99330.56;;;28.71;26.95
69980;BME280;57318;56.232;43.944;2022-08-01T13:12:30;99330.41;;;29.58;25.84
69980;BME280;57318;56.232;43.944;2022-08-01T13:14:56;99327.31;;;31.04;24.34
69980;BME280;57318;56.232;43.944;2022-08-01T13:17:34;99339.34;;;33.04;21.86
69980;BME280;57318;56.232;43.944;2022-08-01T13:20:05;99333.00;;;34.62;19.09
69980;BME280;57318;56.232;43.944;2022-08-01T13:22:33;99336.47;;;35.57;17.69
69980;BME280;57318;56.232;43.944;2022-08-01T13:25:15;99341.53;;;36.27;16.23
69980;BME280;57318;56.232;43.944;2022-08-01T13:27:41;99339.78;;;37.13;15.72
69980;BME280;57318;56.232;43.944;2022-08-01T13:30:18;99343.78;;;37.86;14.46
69980;BME280;57318;56.232;43.944;2022-08-01T13:33:00;99338.78;;;38.44;14.34
69980;BME280;57318;56.232;43.944;2022-08-01T13:35:26;99339.94;;;38.79;14.55
69980;BME280;57318;56.232;43.944;2022-08-01T13:37:52;99336.78;;;38.95;14.64
69980;BME280;57318;56.232;43.944;2022-08-01T13:40:25;99336.94;;;39.12;14.55
69980;BME280;57318;56.232;43.944;2022-08-01T13:42:52;99333.03;;;39.13;14.90
69980;BME280;57318;56.232;43.944;2022-08-01T13:45:19;99340.56;;;38.76;15.32
69980;BME280;57318;56.232;43.944;2022-08-01T13:47:44;99330.31;;;38.63;15.71
69980;BME280;57318;56.232;43.944;2022-08-01T13:50:10;99336.47;;;38.60;15.47
69980;BME280;57318;56.232;43.944;2022-08-01T13:52:35;99334.00;;;38.58;15.52